Campanya meteocatpedra

Dades EMA Rellinars

?
?
Resum diari 22:30 TU
Dades diàries de l'estació meteorològica
Temperatura mitjana 21.7 °C
Temperatura màxima 30.4 °C 12:47 TU
Temperatura mínima 13.3 °C 3:44 TU
Humitat relativa mitjana 54%
Precipitació acumulada 0.0 mm
Ratxa màxima del vent (2 m) 27.4 km/h - 239º 14:20 TU
Irradiació solar global 30.9 MJ/m2

El tram horari està expressat en Temps Universal (TU). Cal sumar una hora en horari d'hivern i dues en horari d'estiu per passar a l'hora oficial.

Rellinars

Metadades estació meteorol´gica
Municipi Rellinars
Comarca Vallès Occidental
Altitud 421 m
Data alta 18.02.1998
Estat actual Operativa
Dades de període
Període
TU
TM
°C
TX
°C
TN
°C
HRM
%
PPT
mm
VVM (2 m)
km/h
DVM (2 m)
graus
VVX (2 m)
km/h
RS
W/m2
00:00 - 00:30 16.3 16.5 16.1 73 0.0 2.5 84 4.7 0
00:30 - 01:00 15.8 16.1 15.3 76 0.0 2.2 64 6.5 0
01:00 - 01:30 15.3 15.4 15.2 79 0.0 1.1 54 3.6 0
01:30 - 02:00 15.1 15.3 14.8 81 0.0 0.4 3 3.6 0
02:00 - 02:30 14.4 14.8 14.1 84 0.0 0.4 300 2.2 0
02:30 - 03:00 13.9 14.1 13.8 87 0.0 0.0 306 1.1 0
03:00 - 03:30 13.9 14.0 13.6 88 0.0 0.0 295 0.7 0
03:30 - 04:00 13.3 13.5 13.3 87 0.0 4.0 67 9.0 0
04:00 - 04:30 13.9 14.1 13.4 85 0.0 1.4 74 4.0 2
04:30 - 05:00 13.5 13.7 13.4 88 0.0 0.7 62 3.6 17
05:00 - 05:30 14.3 15.2 13.5 85 0.0 0.7 72 3.6 97
05:30 - 06:00 15.8 16.9 14.9 78 0.0 0.7 66 4.0 180
06:00 - 06:30 16.0 16.8 15.7 78 0.0 0.4 321 2.9 279
06:30 - 07:00 16.2 16.9 15.8 78 0.0 0.7 275 4.0 380
07:00 - 07:30 17.6 18.5 16.9 74 0.0 1.4 257 4.7 479
07:30 - 08:00 19.2 20.1 18.5 69 0.0 1.8 278 5.4 571
08:00 - 08:30 21.6 22.8 20.2 63 0.0 1.1 324 4.0 663
08:30 - 09:00 23.4 24.9 22.7 54 0.0 1.4 293 5.0 746
09:00 - 09:30 25.2 25.9 24.8 43 0.0 2.2 294 6.5 815
09:30 - 10:00 26.4 26.8 25.9 39 0.0 2.2 283 9.4 871
10:00 - 10:30 26.9 27.7 26.4 37 0.0 2.5 247 10.1 917
10:30 - 11:00 27.6 29.3 26.8 36 0.0 1.8 218 9.0 950
11:00 - 11:30 28.6 29.4 27.6 34 0.0 1.8 214 12.6 976
11:30 - 12:00 28.7 29.2 28.3 34 0.0 2.2 261 10.8 989
12:00 - 12:30 29.4 29.8 28.5 33 0.0 2.5 227 16.9 988
12:30 - 13:00 29.7 30.4 29.0 32 0.0 3.6 247 16.2 994
13:00 - 13:30 29.2 29.8 28.7 32 0.0 5.8 183 19.4 957
13:30 - 14:00 28.6 29.4 27.8 31 0.0 9.4 195 23.0 882
14:00 - 14:30 28.2 28.7 27.9 30 0.0 8.6 197 27.4 823
14:30 - 15:00 28.0 28.3 27.7 30 0.0 9.0 196 22.7 755
15:00 - 15:30 28.0 28.4 27.8 30 0.0 7.9 193 22.7 678
15:30 - 16:00 27.9 28.2 27.6 29 0.0 7.6 191 21.6 594
16:00 - 16:30 27.2 27.8 26.7 28 0.0 9.7 198 22.3 499
16:30 - 17:00 26.4 26.8 26.1 29 0.0 8.6 192 19.4 401
17:00 - 17:30 25.5 26.1 25.0 34 0.0 7.9 178 23.8 301
17:30 - 18:00 24.8 25.2 24.5 38 0.0 5.4 156 15.1 201
18:00 - 18:30 24.2 24.4 24.0 39 0.0 6.1 142 15.1 114
18:30 - 19:00 23.6 24.0 23.2 40 0.0 5.4 129 14.0 40
19:00 - 19:30 22.8 23.2 22.5 42 0.0 5.8 123 13.3 5
19:30 - 20:00 22.2 22.5 22.0 43 0.0 4.7 108 12.6 0
20:00 - 20:30 21.6 22.0 21.0 44 0.0 4.7 109 10.8 0
20:30 - 21:00 21.2 21.6 20.8 46 0.0 3.6 104 9.4 0
21:00 - 21:30 20.0 20.6 19.8 49 0.0 3.2 83 7.9 0
21:30 - 22:00 19.5 19.8 19.0 50 0.0 3.6 79 8.6 0
22:00 - 22:30 19.1 19.5 18.9 51 0.0 3.2 78 8.3 0
22:30 - 23:00 18.6 19.0 18.3 53 0.0 3.2 77 6.5 0
23:00 - 23:30 (s/d) (s/d) (s/d) (s/d) (s/d) (s/d) (s/d) (s/d) (s/d)

Les dades en taronja només han passat un control de qualitat automàtic. Resta pendent la seva validació definitiva.